Kansas City, Missouri
Traffic Map
Current Weather Conditions
Kansas City, Missouri
Broken Clouds
Broken Clouds

Feels Like: 2°
Wind Chill: Ceiling: 1300
Heat Index: Visibility: 10mi
Dew Point: Wind: 15mph
Humidity: 74% Direction: 310° (NW)
Pressure: 29.75in Gusts: 22mph
Raw Report DataKMKC 191801Z 31013G19KT 10SM BKN013 06/02 A2975 RMK AO2 T00610017 $
Traffic Incident Summary
Active as of:
Severity:
Category:
InformationThere was an issue retrieving the traffic information for this location. Please try a different location or try again shortly.
Advertisements